Pagrindinis puslapis
METAR-TAF:

METAR-TAF

Oro uostai :

Vroclavas, Lenkija

platuma: 51-06N, ilguma: 016-53E, Aukštis: 120 m

Dabartinis oras

Ataskaita buvo paskelbta 27 minutes, ne 17:30 UTC
Vėjas 7 kt iš Šiaurės
Temperatūra 5°C
Drėgmė 65%
Slėgis 1021 hPa
Matomumas 10 km arba daugiau
Mažai debesys ne aukštis 3700 ft
Su prošvaistėmis ne aukštis 4300 ft

METAR: EPWR 211730Z 35007KT 9999 FEW037 BKN043 05/M01 Q1021

Laikas: 19:57 (17:57 UTC)

Prognozė

Ataskaita buvo paskelbta 27 minutes, ne 17:30 UTC
Prognozė galioja nuo 21 metu 18 UTC su 22 metu 18 UTC
Vėjas 7 kt iš Šiaurės
Matomumas 10 km arba daugiau
Išsisklaidę debesys ne aukštis 3300 ft
Tikimybė 30% :
Laikinai
nuo 22 metu 01 UTC su 22 metu 06 UTC
Matomumas: 3000 m
Su prošvaistėmis ne aukštis 1300 ft
rūkana,

TAF: EPWR 211730Z 2118/2218 36007KT 9999 SCT033 PROB30 TEMPO 2201/2206 3000 BR BKN013

Orai ataskaitas ir orų prognozės (METAR, TAF).

turimą stotys yra geltonos ir raudonos taškus žemėlapyje.

Perkelti pele per norėdami pamatyti stoties vardą.

Tada spustelėkite, norėdami matyti oro stebėjimo ir prognozės.

Norėdami pakeisti žemėlapį: spustelėkite ant žalios mygtukų su juodo kryžiaus žemyn,; žalią mygtuką su brūkšneliu, jei norite nutolinti; arba žalių rodyklių gretimoms žemėlapius.


METAR-TAF: